Aztec, New Mexico
Current Conditions -  °F | °C
As of 1:53 PM on Tuesday 25 Nov 2014 (Local Time) from KFMN Reporting Station
Clear Clear  
Wind Chill: 36°   Ceiling: Unl
Heat Index: 45°   Visibility: 10mi
Dew Point:   Wind: 23mph
Humidity: 16%   Direction: 290°WNW
Pressure: 30.3"   Gusts: 26mph
Location:  36.83°N, 107.99°W
Report Text: KFMN 252053Z 29020G23KT 10SM CLR 07/M17 A3030 RMK AO2 PK WND 29028/2031 SLP276 T00721172 56023
Loading
Personal Weather Stations






























Interactive Weather Map New forecast layout! Learn more

10-Day Weather Forecast

Advertisements
Track Severe Weather on mobile